Castleton, Vermont
Current Conditions -  °F | °C
As of 9:15 AM on Monday 22 Dec 2014 (Local Time) from KRUT Reporting Station
Overcast Overcast  
Wind Chill: 27°   Ceiling: 3600
Heat Index: 27°   Visibility: 7mi
Dew Point: 23°   Wind: 0mph
Humidity: 86%   Direction: NA
Pressure: 30.34"   Gusts: NA
Location:  43.61°N, 73.18°W
Report Text: KRUT 221415Z 00000KT 7SM OVC036 M03/M05 A3034 RMK AO1
Loading
Personal Weather Stations






























Interactive Weather Map New forecast layout! Learn more

10-Day Weather Forecast

Advertisements
Track Severe Weather on mobile